createdAt,value
2022-11-23T00:02:35.924Z,961.69
2022-11-23T00:10:26.971Z,961.78
2022-11-23T00:18:12.711Z,961.8
2022-11-23T00:26:06.366Z,961.76
2022-11-23T00:33:40.593Z,961.84
2022-11-23T00:41:25.171Z,961.87
2022-11-23T00:49:04.805Z,961.87
2022-11-23T00:56:45.892Z,961.93
2022-11-23T01:04:33.578Z,962
2022-11-23T01:12:22.662Z,962.03
2022-11-23T01:20:01.260Z,962.07
2022-11-23T01:27:42.437Z,962.11
2022-11-23T01:35:37.524Z,962.15
2022-11-23T01:43:30.282Z,962.12
2022-11-23T01:51:31.069Z,962.21
2022-11-23T01:59:37.237Z,962.23
2022-11-23T02:07:43.360Z,962.21
2022-11-23T02:15:33.045Z,962.18
2022-11-23T02:23:31.038Z,962.16
2022-11-23T02:31:33.136Z,962.14
2022-11-23T02:39:25.308Z,962.06
2022-11-23T02:47:26.132Z,962.12
2022-11-23T02:55:07.046Z,962.13
2022-11-23T03:02:49.355Z,962.1
2022-11-23T03:10:38.008Z,962.18
2022-11-23T03:18:19.028Z,962.21
2022-11-23T03:26:13.020Z,962.21
2022-11-23T03:33:46.683Z,962.16
2022-11-23T03:41:33.653Z,962.16
2022-11-23T03:49:11.091Z,962.11
2022-11-23T03:56:53.433Z,962.1
2022-11-23T04:04:41.011Z,962.02
2022-11-23T04:12:25.369Z,961.94
2022-11-23T04:20:05.018Z,961.91
2022-11-23T04:27:44.021Z,961.92
2022-11-23T04:35:27.064Z,961.92
2022-11-23T04:43:21.427Z,961.95
2022-11-23T04:51:03.059Z,962.01
2022-11-23T04:58:40.141Z,962.07
2022-11-23T05:06:22.738Z,962.09
2022-11-23T05:13:57.961Z,962.09
2022-11-23T05:21:29.563Z,962.12
2022-11-23T05:29:07.793Z,962.18
2022-11-23T05:36:43.501Z,962.14
2022-11-23T05:44:22.805Z,962.06
2022-11-23T05:52:11.163Z,962.09
2022-11-23T05:59:54.651Z,962.08
2022-11-23T06:07:35.963Z,962.13
2022-11-23T06:15:23.508Z,962.13
2022-11-23T06:23:13.719Z,962.2
2022-11-23T06:31:00.536Z,962.3
2022-11-23T06:38:41.788Z,962.36
2022-11-23T06:46:30.229Z,962.41
2022-11-23T06:54:10.127Z,962.42
2022-11-23T07:01:58.396Z,962.44
2022-11-23T07:09:45.258Z,962.48
2022-11-23T07:17:31.129Z,962.44
2022-11-23T07:25:18.385Z,962.38
2022-11-23T07:33:04.528Z,962.42
2022-11-23T07:40:50.233Z,962.52
2022-11-23T07:48:37.583Z,962.53
2022-11-23T07:56:16.113Z,962.6
2022-11-23T08:04:16.122Z,962.6
2022-11-23T08:11:57.644Z,962.56
2022-11-23T08:20:13.413Z,962.56
2022-11-23T08:28:01.784Z,962.63
2022-11-23T08:36:07.712Z,962.73
2022-11-23T08:43:53.627Z,962.79
2022-11-23T08:51:52.693Z,962.8
2022-11-23T08:59:47.159Z,962.77
2022-11-23T09:07:44.395Z,962.8
2022-11-23T09:15:34.867Z,962.78
2022-11-23T09:23:16.077Z,962.84
2022-11-23T09:31:13.979Z,962.73
2022-11-23T09:39:04.200Z,962.75
2022-11-23T09:47:13.917Z,962.7
2022-11-23T09:55:21.784Z,962.64
2022-11-23T10:03:16.011Z,962.53
2022-11-23T10:11:15.210Z,962.43
2022-11-23T10:19:37.598Z,962.3
2022-11-23T10:27:54.592Z,962.18
2022-11-23T10:36:06.345Z,962.09
2022-11-23T10:43:54.659Z,962.1
2022-11-23T10:51:54.635Z,962.02
2022-11-23T11:00:05.004Z,961.98
2022-11-23T11:08:09.612Z,961.84
2022-11-23T11:16:14.743Z,961.8
2022-11-23T11:24:29.227Z,961.68
2022-11-23T11:32:36.472Z,961.58
2022-11-23T11:41:00.137Z,961.52
2022-11-23T11:49:12.470Z,961.57
2022-11-23T11:57:22.605Z,961.45
2022-11-23T12:05:36.643Z,961.38
2022-11-23T12:14:01.505Z,961.44
2022-11-23T12:21:57.301Z,961.37
2022-11-23T12:30:04.238Z,961.1
2022-11-23T12:38:20.242Z,961.04
2022-11-23T12:46:13.742Z,960.87
2022-11-23T12:54:31.624Z,960.78
2022-11-23T13:02:49.816Z,960.72
2022-11-23T13:10:58.758Z,960.6
2022-11-23T13:19:11.786Z,960.42
2022-11-23T13:27:32.499Z,960.43
2022-11-23T13:35:36.870Z,960.36
2022-11-23T13:44:01.915Z,960.32
2022-11-23T13:51:54.890Z,960.2
2022-11-23T14:00:07.794Z,960.22
2022-11-23T14:08:08.576Z,960.26
2022-11-23T14:16:15.419Z,960.26
2022-11-23T14:24:16.432Z,960.18
2022-11-23T14:32:40.852Z,960.18
2022-11-23T14:40:45.020Z,960.21
2022-11-23T14:48:42.424Z,960.28
2022-11-23T14:56:33.737Z,960.47
2022-11-23T15:04:45.116Z,960.67
2022-11-23T15:12:54.703Z,960.75
2022-11-23T15:20:55.369Z,960.93
2022-11-23T15:29:06.862Z,961.08
2022-11-23T15:37:07.382Z,961.24
2022-11-23T15:45:12.295Z,961.47
2022-11-23T15:53:18.907Z,961.57
2022-11-23T16:01:18.997Z,961.58
2022-11-23T16:09:49.577Z,961.56
2022-11-23T16:17:41.664Z,961.71
2022-11-23T16:25:48.505Z,961.7
2022-11-23T16:33:50.954Z,961.72
2022-11-23T16:41:14.992Z,961.82
2022-11-23T16:49:05.871Z,961.9
2022-11-23T16:56:55.460Z,961.97
2022-11-23T17:04:55.483Z,962.01
2022-11-23T17:12:29.555Z,962.12
2022-11-23T17:20:19.962Z,962.32
2022-11-23T17:28:11.733Z,962.54
2022-11-23T17:36:02.816Z,962.77
2022-11-23T17:43:42.917Z,962.94
2022-11-23T17:51:29.690Z,963.18
2022-11-23T17:58:57.885Z,963.37
2022-11-23T18:06:36.597Z,963.46
2022-11-23T18:14:17.205Z,963.66
2022-11-23T18:21:59.984Z,963.84
2022-11-23T18:29:29.876Z,963.97
2022-11-23T18:37:12.676Z,964.09
2022-11-23T18:45:03.990Z,964.32
2022-11-23T18:52:49.263Z,964.4
2022-11-23T19:00:32.985Z,964.47
2022-11-23T19:08:16.185Z,964.87
2022-11-23T19:15:47.563Z,965.04
2022-11-23T19:23:30.653Z,965.16
2022-11-23T19:31:23.592Z,965.24
2022-11-23T19:39:01.431Z,965.43
2022-11-23T19:46:45.370Z,965.69
2022-11-23T19:54:34.093Z,965.77
2022-11-23T20:02:23.480Z,965.97
2022-11-23T20:10:08.398Z,966
2022-11-23T20:17:35.513Z,966.05
2022-11-23T20:25:22.163Z,966.2
2022-11-23T20:33:06.697Z,966.3
2022-11-23T20:40:45.716Z,966.34
2022-11-23T20:48:27.082Z,966.57
2022-11-23T20:56:04.768Z,966.76
2022-11-23T21:03:51.909Z,966.9
2022-11-23T21:11:36.902Z,966.99
2022-11-23T21:19:28.226Z,967.17
2022-11-23T21:27:09.065Z,967.31
2022-11-23T21:34:49.219Z,967.33
2022-11-23T21:42:28.289Z,967.44
2022-11-23T21:50:05.855Z,967.54
2022-11-23T21:57:53.906Z,967.63
2022-11-23T22:05:45.580Z,967.75
2022-11-23T22:13:39.556Z,967.79
2022-11-23T22:21:31.946Z,967.92
2022-11-23T22:29:06.175Z,968
2022-11-23T22:36:47.611Z,968.12
2022-11-23T22:44:36.448Z,968.19
2022-11-23T22:52:26.883Z,968.29
2022-11-23T23:00:04.324Z,968.46
2022-11-23T23:07:51.593Z,968.54
2022-11-23T23:15:35.537Z,968.58
2022-11-23T23:23:18.919Z,968.58
2022-11-23T23:30:59.642Z,968.64
2022-11-23T23:38:36.412Z,968.66
2022-11-23T23:46:15.633Z,968.65
2022-11-23T23:53:49.992Z,968.69
